sensor_id;sensor_type;location;lat;lon;timestamp;pressure;altitude;pressure_sealevel;temperature;humidity
76337;BME280;65157;50.082;18.178;2023-08-12T00:00:55;99832.48;;;15.10;70.07
76337;BME280;65157;50.082;18.178;2023-08-12T00:03:31;99835.27;;;15.04;70.21
76337;BME280;65157;50.082;18.178;2023-08-12T00:05:58;99837.17;;;14.98;70.53
76337;BME280;65157;50.082;18.178;2023-08-12T00:08:23;99842.38;;;14.94;70.62
76337;BME280;65157;50.082;18.178;2023-08-12T00:10:49;99847.42;;;14.89;70.92
76337;BME280;65157;50.082;18.178;2023-08-12T00:13:16;99847.80;;;14.85;71.07
76337;BME280;65157;50.082;18.178;2023-08-12T00:15:42;99850.63;;;14.82;71.08
76337;BME280;65157;50.082;18.178;2023-08-12T00:18:10;99853.61;;;14.79;71.19
76337;BME280;65157;50.082;18.178;2023-08-12T00:20:36;99849.84;;;14.77;71.52
76337;BME280;65157;50.082;18.178;2023-08-12T00:23:02;99852.20;;;14.72;71.68
76337;BME280;65157;50.082;18.178;2023-08-12T00:25:28;99844.86;;;14.69;71.92
76337;BME280;65157;50.082;18.178;2023-08-12T00:27:54;99846.16;;;14.68;71.81
76337;BME280;65157;50.082;18.178;2023-08-12T00:30:20;99843.36;;;14.67;71.69
76337;BME280;65157;50.082;18.178;2023-08-12T00:32:46;99842.19;;;14.66;72.11
76337;BME280;65157;50.082;18.178;2023-08-12T00:35:12;99845.52;;;14.63;71.89
76337;BME280;65157;50.082;18.178;2023-08-12T00:37:38;99842.30;;;14.63;72.08
76337;BME280;65157;50.082;18.178;2023-08-12T00:40:04;99840.44;;;14.62;71.99
76337;BME280;65157;50.082;18.178;2023-08-12T00:42:30;99840.89;;;14.59;72.09
76337;BME280;65157;50.082;18.178;2023-08-12T00:44:57;99837.60;;;14.58;72.02
76337;BME280;65157;50.082;18.178;2023-08-12T00:47:24;99838.88;;;14.57;72.04
76337;BME280;65157;50.082;18.178;2023-08-12T00:49:50;99840.04;;;14.55;71.85
76337;BME280;65157;50.082;18.178;2023-08-12T00:52:19;99840.45;;;14.54;71.83
76337;BME280;65157;50.082;18.178;2023-08-12T00:54:45;99840.88;;;14.53;71.99
76337;BME280;65157;50.082;18.178;2023-08-12T00:57:11;99839.84;;;14.48;72.23
76337;BME280;65157;50.082;18.178;2023-08-12T00:59:37;99842.89;;;14.44;72.49
76337;BME280;65157;50.082;18.178;2023-08-12T01:02:03;99843.05;;;14.41;72.48
76337;BME280;65157;50.082;18.178;2023-08-12T01:04:30;99841.64;;;14.37;72.55
76337;BME280;65157;50.082;18.178;2023-08-12T01:06:56;99837.55;;;14.33;72.53
76337;BME280;65157;50.082;18.178;2023-08-12T01:09:22;99839.04;;;14.32;72.52
76337;BME280;65157;50.082;18.178;2023-08-12T01:11:57;99839.14;;;14.34;72.58
76337;BME280;65157;50.082;18.178;2023-08-12T01:15:01;99835.44;;;14.33;72.76
76337;BME280;65157;50.082;18.178;2023-08-12T01:17:31;99836.61;;;14.30;72.86
76337;BME280;65157;50.082;18.178;2023-08-12T01:19:59;99838.52;;;14.28;72.89
76337;BME280;65157;50.082;18.178;2023-08-12T01:22:28;99838.82;;;14.25;72.81
76337;BME280;65157;50.082;18.178;2023-08-12T01:24:56;99836.64;;;14.22;72.75
76337;BME280;65157;50.082;18.178;2023-08-12T01:27:21;99833.59;;;14.20;72.95
76337;BME280;65157;50.082;18.178;2023-08-12T01:29:49;99833.00;;;14.17;72.97
76337;BME280;65157;50.082;18.178;2023-08-12T01:33:21;99838.19;;;14.16;73.07
76337;BME280;65157;50.082;18.178;2023-08-12T01:35:30;99841.81;;;14.10;73.24
76337;BME280;65157;50.082;18.178;2023-08-12T01:37:59;99844.35;;;14.06;73.25
76337;BME280;65157;50.082;18.178;2023-08-12T01:40:28;99848.67;;;14.00;73.24
76337;BME280;65157;50.082;18.178;2023-08-12T01:42:55;99846.23;;;14.00;73.13
76337;BME280;65157;50.082;18.178;2023-08-12T01:45:22;99845.70;;;14.00;73.13
76337;BME280;65157;50.082;18.178;2023-08-12T01:47:48;99841.98;;;13.99;73.27
76337;BME280;65157;50.082;18.178;2023-08-12T01:50:14;99840.94;;;13.95;73.55
76337;BME280;65157;50.082;18.178;2023-08-12T01:52:40;99849.86;;;13.90;73.58
76337;BME280;65157;50.082;18.178;2023-08-12T01:55:06;99845.59;;;13.87;73.69
76337;BME280;65157;50.082;18.178;2023-08-12T01:57:32;99843.70;;;13.86;73.59
76337;BME280;65157;50.082;18.178;2023-08-12T01:59:58;99840.00;;;13.85;73.41
76337;BME280;65157;50.082;18.178;2023-08-12T02:02:23;99837.02;;;13.84;73.60
76337;BME280;65157;50.082;18.178;2023-08-12T02:04:49;99836.67;;;13.80;73.85
76337;BME280;65157;50.082;18.178;2023-08-12T02:07:15;99833.91;;;13.75;73.66
76337;BME280;65157;50.082;18.178;2023-08-12T02:09:41;99834.69;;;13.73;73.50
76337;BME280;65157;50.082;18.178;2023-08-12T02:12:07;99839.98;;;13.74;73.42
76337;BME280;65157;50.082;18.178;2023-08-12T02:14:33;99835.18;;;13.70;73.52
76337;BME280;65157;50.082;18.178;2023-08-12T02:16:59;99839.88;;;13.69;73.49
76337;BME280;65157;50.082;18.178;2023-08-12T02:19:25;99836.77;;;13.66;73.48
76337;BME280;65157;50.082;18.178;2023-08-12T02:21:51;99837.06;;;13.64;73.88
76337;BME280;65157;50.082;18.178;2023-08-12T02:24:17;99838.05;;;13.58;73.93
76337;BME280;65157;50.082;18.178;2023-08-12T02:26:43;99833.19;;;13.51;73.90
76337;BME280;65157;50.082;18.178;2023-08-12T02:29:08;99839.10;;;13.46;73.87
76337;BME280;65157;50.082;18.178;2023-08-12T02:31:34;99839.93;;;13.44;74.06
76337;BME280;65157;50.082;18.178;2023-08-12T02:34:00;99837.77;;;13.40;74.08
76337;BME280;65157;50.082;18.178;2023-08-12T02:36:26;99844.33;;;13.40;74.13
76337;BME280;65157;50.082;18.178;2023-08-12T02:38:52;99836.59;;;13.39;74.24
76337;BME280;65157;50.082;18.178;2023-08-12T02:41:18;99833.45;;;13.38;74.33
76337;BME280;65157;50.082;18.178;2023-08-12T02:43:44;99830.58;;;13.34;74.37
76337;BME280;65157;50.082;18.178;2023-08-12T02:46:10;99833.66;;;13.33;74.22
76337;BME280;65157;50.082;18.178;2023-08-12T02:48:36;99837.83;;;13.31;74.25
76337;BME280;65157;50.082;18.178;2023-08-12T02:51:02;99839.17;;;13.29;74.44
76337;BME280;65157;50.082;18.178;2023-08-12T02:53:27;99840.35;;;13.26;74.59
76337;BME280;65157;50.082;18.178;2023-08-12T02:55:53;99837.28;;;13.23;74.53
76337;BME280;65157;50.082;18.178;2023-08-12T02:58:19;99842.11;;;13.23;74.53
76337;BME280;65157;50.082;18.178;2023-08-12T03:00:45;99837.73;;;13.21;74.44
76337;BME280;65157;50.082;18.178;2023-08-12T03:03:11;99839.13;;;13.22;74.57
76337;BME280;65157;50.082;18.178;2023-08-12T03:05:37;99840.05;;;13.21;74.66
76337;BME280;65157;50.082;18.178;2023-08-12T03:08:04;99842.46;;;13.19;74.63
76337;BME280;65157;50.082;18.178;2023-08-12T03:10:30;99846.74;;;13.18;74.72
76337;BME280;65157;50.082;18.178;2023-08-12T03:12:56;99845.89;;;13.17;74.98
76337;BME280;65157;50.082;18.178;2023-08-12T03:15:22;99846.51;;;13.15;74.94
76337;BME280;65157;50.082;18.178;2023-08-12T03:17:48;99847.61;;;13.15;75.13
76337;BME280;65157;50.082;18.178;2023-08-12T03:20:14;99844.98;;;13.14;75.16
76337;BME280;65157;50.082;18.178;2023-08-12T03:22:40;99846.07;;;13.13;75.21
76337;BME280;65157;50.082;18.178;2023-08-12T03:25:06;99844.90;;;13.12;75.15
76337;BME280;65157;50.082;18.178;2023-08-12T03:27:32;99845.98;;;13.11;75.10
76337;BME280;65157;50.082;18.178;2023-08-12T03:29:58;99844.42;;;13.10;75.27
76337;BME280;65157;50.082;18.178;2023-08-12T03:32:25;99844.33;;;13.08;75.52
76337;BME280;65157;50.082;18.178;2023-08-12T03:34:51;99842.27;;;13.06;75.63
76337;BME280;65157;50.082;18.178;2023-08-12T03:37:17;99840.20;;;13.04;75.83
76337;BME280;65157;50.082;18.178;2023-08-12T03:39:43;99840.92;;;13.04;75.86
76337;BME280;65157;50.082;18.178;2023-08-12T03:42:09;99845.88;;;13.04;75.79
76337;BME280;65157;50.082;18.178;2023-08-12T03:44:35;99846.04;;;13.05;75.86
76337;BME280;65157;50.082;18.178;2023-08-12T03:47:01;99844.38;;;13.06;75.92
76337;BME280;65157;50.082;18.178;2023-08-12T03:49:28;99839.59;;;13.06;76.02
76337;BME280;65157;50.082;18.178;2023-08-12T03:51:54;99839.05;;;13.07;75.93
76337;BME280;65157;50.082;18.178;2023-08-12T03:54:20;99839.17;;;13.09;75.81
76337;BME280;65157;50.082;18.178;2023-08-12T03:56:46;99843.83;;;13.11;76.14
76337;BME280;65157;50.082;18.178;2023-08-12T03:59:12;99841.61;;;13.14;76.06
76337;BME280;65157;50.082;18.178;2023-08-12T04:01:38;99840.44;;;13.16;76.46
76337;BME280;65157;50.082;18.178;2023-08-12T04:04:05;99841.05;;;13.18;76.29
76337;BME280;65157;50.082;18.178;2023-08-12T04:06:31;99837.63;;;13.20;76.36
76337;BME280;65157;50.082;18.178;2023-08-12T04:08:57;99839.80;;;13.23;76.56
76337;BME280;65157;50.082;18.178;2023-08-12T04:11:23;99836.30;;;13.26;76.89
76337;BME280;65157;50.082;18.178;2023-08-12T04:13:49;99838.11;;;13.29;76.87
76337;BME280;65157;50.082;18.178;2023-08-12T04:16:15;99835.34;;;13.31;76.84
76337;BME280;65157;50.082;18.178;2023-08-12T04:18:41;99830.45;;;13.34;76.87
76337;BME280;65157;50.082;18.178;2023-08-12T04:21:07;99826.11;;;13.35;76.89
76337;BME280;65157;50.082;18.178;2023-08-12T04:23:33;99833.98;;;13.38;76.92
76337;BME280;65157;50.082;18.178;2023-08-12T04:25:59;99828.23;;;13.39;76.89
76337;BME280;65157;50.082;18.178;2023-08-12T04:28:25;99815.88;;;13.38;77.01
76337;BME280;65157;50.082;18.178;2023-08-12T04:30:51;99821.02;;;13.43;77.03
76337;BME280;65157;50.082;18.178;2023-08-12T04:33:17;99815.75;;;13.45;77.29
76337;BME280;65157;50.082;18.178;2023-08-12T04:35:43;99814.76;;;13.47;77.56
76337;BME280;65157;50.082;18.178;2023-08-12T04:38:08;99820.65;;;13.50;77.76
76337;BME280;65157;50.082;18.178;2023-08-12T04:40:39;99819.12;;;13.53;77.79
76337;BME280;65157;50.082;18.178;2023-08-12T04:43:05;99818.24;;;13.56;77.75
76337;BME280;65157;50.082;18.178;2023-08-12T04:45:31;99819.32;;;13.60;78.00
76337;BME280;65157;50.082;18.178;2023-08-12T04:47:57;99825.86;;;13.65;78.08
76337;BME280;65157;50.082;18.178;2023-08-12T04:50:23;99824.44;;;13.69;78.12
76337;BME280;65157;50.082;18.178;2023-08-12T04:52:49;99821.73;;;13.73;78.59
76337;BME280;65157;50.082;18.178;2023-08-12T04:55:15;99824.23;;;13.77;78.90
76337;BME280;65157;50.082;18.178;2023-08-12T04:57:41;99828.27;;;13.81;78.83
76337;BME280;65157;50.082;18.178;2023-08-12T05:00:07;99825.21;;;13.86;78.80
76337;BME280;65157;50.082;18.178;2023-08-12T05:02:33;99824.80;;;13.91;78.61
76337;BME280;65157;50.082;18.178;2023-08-12T05:04:59;99824.73;;;13.96;78.62
76337;BME280;65157;50.082;18.178;2023-08-12T05:07:26;99823.38;;;14.02;78.62
76337;BME280;65157;50.082;18.178;2023-08-12T05:09:52;99822.16;;;14.10;78.53
76337;BME280;65157;50.082;18.178;2023-08-12T05:12:18;99828.79;;;14.16;78.55
76337;BME280;65157;50.082;18.178;2023-08-12T05:14:45;99829.59;;;14.21;78.27
76337;BME280;65157;50.082;18.178;2023-08-12T05:17:11;99830.61;;;14.26;78.12
76337;BME280;65157;50.082;18.178;2023-08-12T05:19:37;99827.36;;;14.31;78.07
76337;BME280;65157;50.082;18.178;2023-08-12T05:22:04;99825.45;;;14.38;77.93
76337;BME280;65157;50.082;18.178;2023-08-12T05:24:30;99825.86;;;14.44;77.64
76337;BME280;65157;50.082;18.178;2023-08-12T05:26:56;99822.80;;;14.48;77.96
76337;BME280;65157;50.082;18.178;2023-08-12T05:29:22;99829.73;;;14.55;78.25
76337;BME280;65157;50.082;18.178;2023-08-12T05:31:48;99829.32;;;14.63;77.94
76337;BME280;65157;50.082;18.178;2023-08-12T05:34:14;99828.31;;;14.73;77.88
76337;BME280;65157;50.082;18.178;2023-08-12T05:36:40;99825.09;;;14.84;77.76
76337;BME280;65157;50.082;18.178;2023-08-12T05:39:06;99826.52;;;14.94;77.81
76337;BME280;65157;50.082;18.178;2023-08-12T05:41:32;99821.09;;;15.06;78.02
76337;BME280;65157;50.082;18.178;2023-08-12T05:43:58;99824.14;;;15.20;77.60
76337;BME280;65157;50.082;18.178;2023-08-12T05:46:24;99821.17;;;15.32;77.50
76337;BME280;65157;50.082;18.178;2023-08-12T05:48:50;99817.41;;;15.43;77.10
76337;BME280;65157;50.082;18.178;2023-08-12T05:51:15;99818.91;;;15.55;76.86
76337;BME280;65157;50.082;18.178;2023-08-12T05:53:41;99818.56;;;15.71;77.33
76337;BME280;65157;50.082;18.178;2023-08-12T05:56:07;99819.05;;;15.89;77.06
76337;BME280;65157;50.082;18.178;2023-08-12T05:58:33;99825.19;;;16.07;76.67
76337;BME280;65157;50.082;18.178;2023-08-12T06:00:59;99823.30;;;16.24;76.31
76337;BME280;65157;50.082;18.178;2023-08-12T06:03:25;99823.77;;;16.44;75.99
76337;BME280;65157;50.082;18.178;2023-08-12T06:05:51;99819.35;;;16.62;75.70
76337;BME280;65157;50.082;18.178;2023-08-12T06:08:17;99817.67;;;16.82;75.64
76337;BME280;65157;50.082;18.178;2023-08-12T06:10:43;99815.13;;;17.01;75.22
76337;BME280;65157;50.082;18.178;2023-08-12T06:13:09;99808.46;;;17.14;74.23
76337;BME280;65157;50.082;18.178;2023-08-12T06:15:35;99806.45;;;17.32;73.90
76337;BME280;65157;50.082;18.178;2023-08-12T06:18:02;99802.98;;;17.50;72.94
76337;BME280;65157;50.082;18.178;2023-08-12T06:20:28;99803.75;;;17.70;72.50
76337;BME280;65157;50.082;18.178;2023-08-12T06:22:55;99803.95;;;17.89;72.09
76337;BME280;65157;50.082;18.178;2023-08-12T06:25:21;99802.09;;;18.10;71.82
76337;BME280;65157;50.082;18.178;2023-08-12T06:27:47;99801.05;;;18.31;71.14
76337;BME280;65157;50.082;18.178;2023-08-12T06:30:13;99797.19;;;18.50;70.73
76337;BME280;65157;50.082;18.178;2023-08-12T06:32:40;99795.52;;;18.70;70.09
76337;BME280;65157;50.082;18.178;2023-08-12T06:35:06;99796.23;;;18.88;69.70
76337;BME280;65157;50.082;18.178;2023-08-12T06:37:32;99801.30;;;19.05;69.32
76337;BME280;65157;50.082;18.178;2023-08-12T06:39:58;99798.74;;;19.22;68.87
76337;BME280;65157;50.082;18.178;2023-08-12T06:42:24;99798.11;;;19.39;68.40
76337;BME280;65157;50.082;18.178;2023-08-12T06:44:57;99793.88;;;19.53;67.87
76337;BME280;65157;50.082;18.178;2023-08-12T06:47:23;99791.85;;;19.71;67.60
76337;BME280;65157;50.082;18.178;2023-08-12T06:49:51;99788.10;;;19.89;67.21
76337;BME280;65157;50.082;18.178;2023-08-12T06:52:17;99788.05;;;20.07;66.68
76337;BME280;65157;50.082;18.178;2023-08-12T06:54:43;99789.76;;;20.28;66.42
76337;BME280;65157;50.082;18.178;2023-08-12T06:57:09;99789.05;;;20.47;65.78
76337;BME280;65157;50.082;18.178;2023-08-12T06:59:34;99786.66;;;20.62;65.40
76337;BME280;65157;50.082;18.178;2023-08-12T07:02:00;99786.80;;;20.74;64.73
76337;BME280;65157;50.082;18.178;2023-08-12T07:04:26;99787.56;;;20.86;64.63
76337;BME280;65157;50.082;18.178;2023-08-12T07:06:54;99783.40;;;21.03;64.37
76337;BME280;65157;50.082;18.178;2023-08-12T07:09:19;99778.79;;;21.21;63.95
76337;BME280;65157;50.082;18.178;2023-08-12T07:11:46;99772.83;;;21.37;63.67
76337;BME280;65157;50.082;18.178;2023-08-12T07:14:12;99770.81;;;21.56;63.46
76337;BME280;65157;50.082;18.178;2023-08-12T07:16:38;99766.89;;;21.76;63.17
76337;BME280;65157;50.082;18.178;2023-08-12T07:19:04;99770.27;;;21.92;62.16
76337;BME280;65157;50.082;18.178;2023-08-12T07:21:32;99762.80;;;22.04;62.10
76337;BME280;65157;50.082;18.178;2023-08-12T07:23:58;99767.26;;;22.15;61.48
76337;BME280;65157;50.082;18.178;2023-08-12T07:26:24;99765.38;;;22.27;61.74
76337;BME280;65157;50.082;18.178;2023-08-12T07:28:50;99764.80;;;22.45;61.13
76337;BME280;65157;50.082;18.178;2023-08-12T07:31:17;99763.92;;;22.58;60.49
76337;BME280;65157;50.082;18.178;2023-08-12T07:33:43;99763.05;;;22.66;60.31
76337;BME280;65157;50.082;18.178;2023-08-12T07:36:09;99760.17;;;22.75;60.02
76337;BME280;65157;50.082;18.178;2023-08-12T07:38:35;99759.56;;;22.92;59.97
76337;BME280;65157;50.082;18.178;2023-08-12T07:41:01;99753.29;;;23.11;59.49
76337;BME280;65157;50.082;18.178;2023-08-12T07:43:27;99751.73;;;23.27;59.00
76337;BME280;65157;50.082;18.178;2023-08-12T07:45:53;99755.86;;;23.37;58.51
76337;BME280;65157;50.082;18.178;2023-08-12T07:48:22;99754.16;;;23.45;58.64
76337;BME280;65157;50.082;18.178;2023-08-12T07:50:56;99754.23;;;23.58;57.84
76337;BME280;65157;50.082;18.178;2023-08-12T07:53:22;99751.97;;;23.72;57.43
76337;BME280;65157;50.082;18.178;2023-08-12T07:55:48;99752.16;;;23.83;57.19
76337;BME280;65157;50.082;18.178;2023-08-12T07:58:14;99752.70;;;23.95;56.95
76337;BME280;65157;50.082;18.178;2023-08-12T08:00:40;99759.71;;;24.14;56.42
76337;BME280;65157;50.082;18.178;2023-08-12T08:03:06;99756.27;;;24.24;56.02
76337;BME280;65157;50.082;18.178;2023-08-12T08:05:32;99753.87;;;24.34;55.87
76337;BME280;65157;50.082;18.178;2023-08-12T08:07:58;99747.18;;;24.52;55.59
76337;BME280;65157;50.082;18.178;2023-08-12T08:10:24;99746.23;;;24.66;54.25
76337;BME280;65157;50.082;18.178;2023-08-12T08:12:50;99745.59;;;24.79;54.24
76337;BME280;65157;50.082;18.178;2023-08-12T08:15:16;99743.55;;;24.86;53.39
76337;BME280;65157;50.082;18.178;2023-08-12T08:17:42;99744.64;;;24.91;53.81
76337;BME280;65157;50.082;18.178;2023-08-12T08:20:08;99740.77;;;25.00;53.68
76337;BME280;65157;50.082;18.178;2023-08-12T08:22:34;99732.02;;;25.12;54.07
76337;BME280;65157;50.082;18.178;2023-08-12T08:25:03;99729.42;;;25.31;54.03
76337;BME280;65157;50.082;18.178;2023-08-12T08:27:29;99725.92;;;25.57;53.39
76337;BME280;65157;50.082;18.178;2023-08-12T08:29:55;99723.38;;;25.77;52.35
76337;BME280;65157;50.082;18.178;2023-08-12T08:32:21;99719.75;;;25.96;51.41
76337;BME280;65157;50.082;18.178;2023-08-12T08:34:47;99719.47;;;26.09;50.59
76337;BME280;65157;50.082;18.178;2023-08-12T08:37:12;99719.96;;;26.19;50.53
76337;BME280;65157;50.082;18.178;2023-08-12T08:39:38;99712.07;;;26.26;49.29
76337;BME280;65157;50.082;18.178;2023-08-12T08:42:09;99711.36;;;26.27;49.17
76337;BME280;65157;50.082;18.178;2023-08-12T08:44:37;99710.70;;;26.37;49.87
76337;BME280;65157;50.082;18.178;2023-08-12T08:47:06;99707.88;;;26.53;49.43
76337;BME280;65157;50.082;18.178;2023-08-12T08:49:33;99707.08;;;26.68;49.53
76337;BME280;65157;50.082;18.178;2023-08-12T08:52:00;99703.71;;;26.83;47.93
76337;BME280;65157;50.082;18.178;2023-08-12T08:54:27;99700.21;;;26.94;46.87
76337;BME280;65157;50.082;18.178;2023-08-12T08:56:55;99695.65;;;27.07;46.76
76337;BME280;65157;50.082;18.178;2023-08-12T08:59:21;99699.01;;;27.18;45.73
76337;BME280;65157;50.082;18.178;2023-08-12T09:01:49;99699.63;;;27.29;45.28
76337;BME280;65157;50.082;18.178;2023-08-12T09:04:16;99693.27;;;27.41;44.98
76337;BME280;65157;50.082;18.178;2023-08-12T09:06:43;99689.71;;;27.55;45.10
76337;BME280;65157;50.082;18.178;2023-08-12T09:09:12;99687.04;;;27.74;44.65
76337;BME280;65157;50.082;18.178;2023-08-12T09:11:39;99683.17;;;27.85;44.09
76337;BME280;65157;50.082;18.178;2023-08-12T09:14:06;99680.38;;;28.01;44.08
76337;BME280;65157;50.082;18.178;2023-08-12T09:16:32;99677.58;;;28.17;43.04
76337;BME280;65157;50.082;18.178;2023-08-12T09:18:58;99677.98;;;28.31;42.81
76337;BME280;65157;50.082;18.178;2023-08-12T09:21:24;99676.45;;;28.43;41.91
76337;BME280;65157;50.082;18.178;2023-08-12T09:23:50;99675.67;;;28.49;41.32
76337;BME280;65157;50.082;18.178;2023-08-12T09:26:18;99678.91;;;28.54;41.87
76337;BME280;65157;50.082;18.178;2023-08-12T09:28:45;99677.68;;;28.64;41.67
76337;BME280;65157;50.082;18.178;2023-08-12T09:31:28;99679.14;;;28.74;41.67
76337;BME280;65157;50.082;18.178;2023-08-12T09:34:05;99677.20;;;28.84;41.25
76337;BME280;65157;50.082;18.178;2023-08-12T09:36:35;99674.38;;;28.87;41.17
76337;BME280;65157;50.082;18.178;2023-08-12T09:39:06;99672.86;;;28.98;41.80
76337;BME280;65157;50.082;18.178;2023-08-12T09:41:34;99676.70;;;29.19;42.16
76337;BME280;65157;50.082;18.178;2023-08-12T09:44:02;99679.40;;;29.31;41.01
76337;BME280;65157;50.082;18.178;2023-08-12T09:46:28;99675.66;;;29.41;40.37
76337;BME280;65157;50.082;18.178;2023-08-12T09:48:54;99669.35;;;29.47;39.33
76337;BME280;65157;50.082;18.178;2023-08-12T09:51:20;99663.47;;;29.52;39.74
76337;BME280;65157;50.082;18.178;2023-08-12T09:53:47;99666.75;;;29.69;40.74
76337;BME280;65157;50.082;18.178;2023-08-12T09:56:13;99660.92;;;29.84;40.10
76337;BME280;65157;50.082;18.178;2023-08-12T09:58:43;99660.59;;;29.90;38.49
76337;BME280;65157;50.082;18.178;2023-08-12T10:01:11;99653.74;;;29.94;38.61
76337;BME280;65157;50.082;18.178;2023-08-12T10:03:37;99649.46;;;30.04;38.90
76337;BME280;65157;50.082;18.178;2023-08-12T10:06:05;99650.98;;;30.02;38.19
76337;BME280;65157;50.082;18.178;2023-08-12T10:08:31;99639.55;;;30.00;39.24
76337;BME280;65157;50.082;18.178;2023-08-12T10:10:58;99632.20;;;30.08;39.28
76337;BME280;65157;50.082;18.178;2023-08-12T10:13:25;99634.84;;;30.16;38.63
76337;BME280;65157;50.082;18.178;2023-08-12T10:15:52;99631.55;;;30.18;38.72
76337;BME280;65157;50.082;18.178;2023-08-12T10:18:19;99625.70;;;30.26;39.60
76337;BME280;65157;50.082;18.178;2023-08-12T10:20:47;99625.27;;;30.39;38.69
76337;BME280;65157;50.082;18.178;2023-08-12T10:23:15;99624.36;;;30.42;38.03
76337;BME280;65157;50.082;18.178;2023-08-12T10:25:43;99621.80;;;30.45;38.08
76337;BME280;65157;50.082;18.178;2023-08-12T10:28:10;99622.14;;;30.59;37.43
76337;BME280;65157;50.082;18.178;2023-08-12T10:30:37;99629.58;;;30.62;37.49
76337;BME280;65157;50.082;18.178;2023-08-12T10:33:05;99626.77;;;30.66;36.72
76337;BME280;65157;50.082;18.178;2023-08-12T10:35:42;99622.85;;;30.65;36.42
76337;BME280;65157;50.082;18.178;2023-08-12T10:38:11;99624.44;;;30.64;36.92
76337;BME280;65157;50.082;18.178;2023-08-12T10:40:37;99621.14;;;30.69;37.09
76337;BME280;65157;50.082;18.178;2023-08-12T10:43:04;99619.20;;;30.80;37.40
76337;BME280;65157;50.082;18.178;2023-08-12T10:45:43;99618.23;;;30.85;36.79
76337;BME280;65157;50.082;18.178;2023-08-12T10:48:17;99613.63;;;30.93;38.28
76337;BME280;65157;50.082;18.178;2023-08-12T10:50:44;99614.75;;;31.09;37.93
76337;BME280;65157;50.082;18.178;2023-08-12T10:53:32;99609.88;;;31.18;36.89
76337;BME280;65157;50.082;18.178;2023-08-12T10:56:11;99610.02;;;31.11;36.27
76337;BME280;65157;50.082;18.178;2023-08-12T11:01:27;99604.14;;;31.20;36.17
76337;BME280;65157;50.082;18.178;2023-08-12T11:03:57;99603.09;;;31.31;36.53
76337;BME280;65157;50.082;18.178;2023-08-12T11:06:27;99603.23;;;31.30;37.06
76337;BME280;65157;50.082;18.178;2023-08-12T11:08:53;99600.23;;;31.28;36.44
76337;BME280;65157;50.082;18.178;2023-08-12T11:11:25;99599.21;;;31.30;36.39
76337;BME280;65157;50.082;18.178;2023-08-12T11:13:57;99596.66;;;31.32;36.16
76337;BME280;65157;50.082;18.178;2023-08-12T11:16:36;99592.57;;;31.21;34.34
76337;BME280;65157;50.082;18.178;2023-08-12T11:19:03;99585.23;;;31.11;34.73
76337;BME280;65157;50.082;18.178;2023-08-12T11:21:30;99582.48;;;31.15;34.60
76337;BME280;65157;50.082;18.178;2023-08-12T11:23:56;99577.56;;;31.19;35.16
76337;BME280;65157;50.082;18.178;2023-08-12T11:26:23;99581.23;;;31.25;34.31
76337;BME280;65157;50.082;18.178;2023-08-12T11:28:49;99579.14;;;31.20;35.86
76337;BME280;65157;50.082;18.178;2023-08-12T11:31:16;99577.03;;;31.22;36.19
76337;BME280;65157;50.082;18.178;2023-08-12T11:33:43;99574.25;;;31.25;34.20
76337;BME280;65157;50.082;18.178;2023-08-12T11:36:09;99571.25;;;31.25;35.31
76337;BME280;65157;50.082;18.178;2023-08-12T11:38:39;99566.05;;;31.31;35.43
76337;BME280;65157;50.082;18.178;2023-08-12T11:41:05;99562.63;;;31.31;35.88
76337;BME280;65157;50.082;18.178;2023-08-12T11:43:34;99564.63;;;31.36;34.78
76337;BME280;65157;50.082;18.178;2023-08-12T11:46:00;99558.22;;;31.34;34.42
76337;BME280;65157;50.082;18.178;2023-08-12T11:48:28;99556.64;;;31.31;34.96
76337;BME280;65157;50.082;18.178;2023-08-12T11:50:56;99555.23;;;31.26;34.07
76337;BME280;65157;50.082;18.178;2023-08-12T11:53:24;99547.69;;;31.19;33.62
76337;BME280;65157;50.082;18.178;2023-08-12T11:55:50;99547.59;;;31.19;35.20
76337;BME280;65157;50.082;18.178;2023-08-12T11:58:16;99545.41;;;31.20;35.46
76337;BME280;65157;50.082;18.178;2023-08-12T12:00:42;99540.80;;;31.20;35.69
76337;BME280;65157;50.082;18.178;2023-08-12T12:03:08;99544.77;;;31.25;34.84
76337;BME280;65157;50.082;18.178;2023-08-12T12:05:34;99546.13;;;31.25;34.69
76337;BME280;65157;50.082;18.178;2023-08-12T12:08:00;99541.52;;;31.26;34.84
76337;BME280;65157;50.082;18.178;2023-08-12T12:10:28;99541.05;;;31.33;34.85
76337;BME280;65157;50.082;18.178;2023-08-12T12:12:56;99536.73;;;31.37;33.83
76337;BME280;65157;50.082;18.178;2023-08-12T12:15:22;99534.14;;;31.39;33.86
76337;BME280;65157;50.082;18.178;2023-08-12T12:17:51;99531.63;;;31.40;33.73
76337;BME280;65157;50.082;18.178;2023-08-12T12:20:17;99533.13;;;31.38;33.77
76337;BME280;65157;50.082;18.178;2023-08-12T12:22:44;99528.53;;;31.35;33.17
76337;BME280;65157;50.082;18.178;2023-08-12T12:25:12;99529.81;;;31.32;34.10
76337;BME280;65157;50.082;18.178;2023-08-12T12:27:39;99528.66;;;31.25;33.40
76337;BME280;65157;50.082;18.178;2023-08-12T12:30:08;99526.55;;;31.25;34.59
76337;BME280;65157;50.082;18.178;2023-08-12T12:32:35;99520.36;;;31.35;34.13
76337;BME280;65157;50.082;18.178;2023-08-12T12:35:01;99518.11;;;31.50;34.88
76337;BME280;65157;50.082;18.178;2023-08-12T12:37:27;99515.54;;;31.63;34.62
76337;BME280;65157;50.082;18.178;2023-08-12T12:39:53;99516.57;;;31.72;34.72
76337;BME280;65157;50.082;18.178;2023-08-12T12:42:19;99511.87;;;31.81;34.81
76337;BME280;65157;50.082;18.178;2023-08-12T12:44:45;99507.76;;;31.87;33.47
76337;BME280;65157;50.082;18.178;2023-08-12T12:47:11;99504.77;;;31.75;32.94
76337;BME280;65157;50.082;18.178;2023-08-12T12:49:37;99503.19;;;31.66;33.13
76337;BME280;65157;50.082;18.178;2023-08-12T12:52:03;99501.53;;;31.62;33.08